sensor_id;sensor_type;location;lat;lon;timestamp;P1;durP1;ratioP1;P2;durP2;ratioP2
36725;SDS011;44936;52.086;5.150;2023-04-19T00:00:46;6.43;;;2.83;;
36725;SDS011;44936;52.086;5.150;2023-04-19T00:03:11;7.55;;;3.10;;
36725;SDS011;44936;52.086;5.150;2023-04-19T00:05:38;7.18;;;3.05;;
36725;SDS011;44936;52.086;5.150;2023-04-19T00:08:04;5.88;;;2.53;;
36725;SDS011;44936;52.086;5.150;2023-04-19T00:10:29;4.68;;;2.38;;
36725;SDS011;44936;52.086;5.150;2023-04-19T00:12:55;6.10;;;2.58;;
36725;SDS011;44936;52.086;5.150;2023-04-19T00:15:22;8.98;;;2.80;;
36725;SDS011;44936;52.086;5.150;2023-04-19T00:17:47;4.63;;;2.65;;
36725;SDS011;44936;52.086;5.150;2023-04-19T00:20:12;10.05;;;2.95;;
36725;SDS011;44936;52.086;5.150;2023-04-19T00:22:38;5.80;;;2.33;;
36725;SDS011;44936;52.086;5.150;2023-04-19T00:25:04;7.78;;;3.15;;
36725;SDS011;44936;52.086;5.150;2023-04-19T00:27:30;7.57;;;2.83;;
36725;SDS011;44936;52.086;5.150;2023-04-19T00:29:55;7.28;;;2.72;;
36725;SDS011;44936;52.086;5.150;2023-04-19T00:32:21;6.32;;;2.67;;
36725;SDS011;44936;52.086;5.150;2023-04-19T00:34:47;8.20;;;2.67;;
36725;SDS011;44936;52.086;5.150;2023-04-19T00:37:12;7.95;;;2.97;;
36725;SDS011;44936;52.086;5.150;2023-04-19T00:39:38;6.13;;;2.72;;
36725;SDS011;44936;52.086;5.150;2023-04-19T00:42:04;5.32;;;2.42;;
36725;SDS011;44936;52.086;5.150;2023-04-19T00:44:29;9.88;;;3.22;;
36725;SDS011;44936;52.086;5.150;2023-04-19T00:46:55;6.45;;;2.75;;
36725;SDS011;44936;52.086;5.150;2023-04-19T00:49:21;6.30;;;2.70;;
36725;SDS011;44936;52.086;5.150;2023-04-19T00:51:48;7.57;;;3.20;;
36725;SDS011;44936;52.086;5.150;2023-04-19T00:54:14;6.95;;;2.83;;
36725;SDS011;44936;52.086;5.150;2023-04-19T00:56:40;4.78;;;2.30;;
36725;SDS011;44936;52.086;5.150;2023-04-19T00:59:05;6.18;;;2.50;;
36725;SDS011;44936;52.086;5.150;2023-04-19T01:01:32;5.57;;;2.92;;
36725;SDS011;44936;52.086;5.150;2023-04-19T01:03:58;9.93;;;3.15;;
36725;SDS011;44936;52.086;5.150;2023-04-19T01:06:27;6.10;;;2.58;;
36725;SDS011;44936;52.086;5.150;2023-04-19T01:08:54;7.85;;;3.08;;
36725;SDS011;44936;52.086;5.150;2023-04-19T01:11:20;11.13;;;3.25;;
36725;SDS011;44936;52.086;5.150;2023-04-19T01:13:46;8.15;;;3.00;;
36725;SDS011;44936;52.086;5.150;2023-04-19T01:16:12;8.05;;;3.03;;
36725;SDS011;44936;52.086;5.150;2023-04-19T01:18:37;7.60;;;3.30;;
36725;SDS011;44936;52.086;5.150;2023-04-19T01:21:04;6.57;;;2.63;;
36725;SDS011;44936;52.086;5.150;2023-04-19T01:23:31;7.68;;;3.58;;
36725;SDS011;44936;52.086;5.150;2023-04-19T01:25:57;8.15;;;2.65;;
36725;SDS011;44936;52.086;5.150;2023-04-19T01:28:22;7.82;;;3.17;;
36725;SDS011;44936;52.086;5.150;2023-04-19T01:30:47;8.63;;;3.35;;
36725;SDS011;44936;52.086;5.150;2023-04-19T01:33:15;11.15;;;2.88;;
36725;SDS011;44936;52.086;5.150;2023-04-19T01:35:41;8.20;;;3.20;;
36725;SDS011;44936;52.086;5.150;2023-04-19T01:38:06;9.40;;;3.20;;
36725;SDS011;44936;52.086;5.150;2023-04-19T01:40:31;7.97;;;3.10;;
36725;SDS011;44936;52.086;5.150;2023-04-19T01:42:57;9.63;;;2.97;;
36725;SDS011;44936;52.086;5.150;2023-04-19T01:45:22;6.65;;;3.08;;
36725;SDS011;44936;52.086;5.150;2023-04-19T01:47:47;10.10;;;2.97;;
36725;SDS011;44936;52.086;5.150;2023-04-19T01:50:13;8.32;;;3.45;;
36725;SDS011;44936;52.086;5.150;2023-04-19T01:52:38;6.28;;;3.00;;
36725;SDS011;44936;52.086;5.150;2023-04-19T01:55:03;9.18;;;3.83;;
36725;SDS011;44936;52.086;5.150;2023-04-19T01:57:29;5.35;;;2.60;;
36725;SDS011;44936;52.086;5.150;2023-04-19T01:59:55;6.32;;;2.97;;
36725;SDS011;44936;52.086;5.150;2023-04-19T02:02:21;6.93;;;2.88;;
36725;SDS011;44936;52.086;5.150;2023-04-19T02:04:46;8.82;;;3.40;;
36725;SDS011;44936;52.086;5.150;2023-04-19T02:07:11;10.13;;;3.13;;
36725;SDS011;44936;52.086;5.150;2023-04-19T02:09:37;7.35;;;3.20;;
36725;SDS011;44936;52.086;5.150;2023-04-19T02:12:04;8.43;;;3.35;;
36725;SDS011;44936;52.086;5.150;2023-04-19T02:14:29;8.38;;;3.25;;
36725;SDS011;44936;52.086;5.150;2023-04-19T02:16:55;8.95;;;3.08;;
36725;SDS011;44936;52.086;5.150;2023-04-19T02:19:20;8.85;;;3.30;;
36725;SDS011;44936;52.086;5.150;2023-04-19T02:21:45;7.05;;;3.00;;
36725;SDS011;44936;52.086;5.150;2023-04-19T02:24:11;8.10;;;3.33;;
36725;SDS011;44936;52.086;5.150;2023-04-19T02:26:36;7.93;;;3.00;;
36725;SDS011;44936;52.086;5.150;2023-04-19T02:29:03;9.30;;;3.78;;
36725;SDS011;44936;52.086;5.150;2023-04-19T02:31:29;6.75;;;3.03;;
36725;SDS011;44936;52.086;5.150;2023-04-19T02:33:54;7.35;;;3.38;;
36725;SDS011;44936;52.086;5.150;2023-04-19T02:36:19;10.07;;;4.15;;
36725;SDS011;44936;52.086;5.150;2023-04-19T02:38:45;6.65;;;2.92;;
36725;SDS011;44936;52.086;5.150;2023-04-19T02:41:10;7.90;;;3.10;;
36725;SDS011;44936;52.086;5.150;2023-04-19T02:43:35;8.57;;;3.33;;
36725;SDS011;44936;52.086;5.150;2023-04-19T02:46:01;4.75;;;2.92;;
36725;SDS011;44936;52.086;5.150;2023-04-19T02:48:27;6.90;;;2.90;;
36725;SDS011;44936;52.086;5.150;2023-04-19T02:50:52;8.85;;;2.70;;
36725;SDS011;44936;52.086;5.150;2023-04-19T02:53:17;7.10;;;2.95;;
36725;SDS011;44936;52.086;5.150;2023-04-19T02:55:43;10.63;;;3.28;;
36725;SDS011;44936;52.086;5.150;2023-04-19T02:58:08;7.35;;;3.08;;
36725;SDS011;44936;52.086;5.150;2023-04-19T03:00:33;7.03;;;2.45;;
36725;SDS011;44936;52.086;5.150;2023-04-19T03:02:59;8.90;;;2.72;;
36725;SDS011;44936;52.086;5.150;2023-04-19T03:05:26;7.72;;;3.15;;
36725;SDS011;44936;52.086;5.150;2023-04-19T03:07:51;7.40;;;3.17;;
36725;SDS011;44936;52.086;5.150;2023-04-19T03:10:17;7.82;;;3.20;;
36725;SDS011;44936;52.086;5.150;2023-04-19T03:12:42;8.05;;;3.13;;
36725;SDS011;44936;52.086;5.150;2023-04-19T03:15:08;9.50;;;2.85;;
36725;SDS011;44936;52.086;5.150;2023-04-19T03:17:34;5.22;;;2.70;;
36725;SDS011;44936;52.086;5.150;2023-04-19T03:20:00;8.15;;;3.50;;
36725;SDS011;44936;52.086;5.150;2023-04-19T03:22:30;8.25;;;3.42;;
36725;SDS011;44936;52.086;5.150;2023-04-19T03:24:55;8.90;;;3.78;;
36725;SDS011;44936;52.086;5.150;2023-04-19T03:27:21;8.30;;;3.75;;
36725;SDS011;44936;52.086;5.150;2023-04-19T03:29:46;7.78;;;2.92;;
36725;SDS011;44936;52.086;5.150;2023-04-19T03:32:11;10.15;;;3.20;;
36725;SDS011;44936;52.086;5.150;2023-04-19T03:34:37;10.20;;;3.15;;
36725;SDS011;44936;52.086;5.150;2023-04-19T03:37:02;7.18;;;2.88;;
36725;SDS011;44936;52.086;5.150;2023-04-19T03:39:27;11.02;;;3.22;;
36725;SDS011;44936;52.086;5.150;2023-04-19T03:41:52;8.05;;;2.90;;
36725;SDS011;44936;52.086;5.150;2023-04-19T03:44:18;8.80;;;3.20;;
36725;SDS011;44936;52.086;5.150;2023-04-19T03:46:43;9.07;;;3.13;;
36725;SDS011;44936;52.086;5.150;2023-04-19T03:49:10;7.93;;;2.70;;
36725;SDS011;44936;52.086;5.150;2023-04-19T03:51:35;6.65;;;2.80;;
36725;SDS011;44936;52.086;5.150;2023-04-19T03:54:01;9.70;;;3.00;;
36725;SDS011;44936;52.086;5.150;2023-04-19T03:56:26;7.63;;;2.80;;
36725;SDS011;44936;52.086;5.150;2023-04-19T03:58:52;8.07;;;3.28;;
36725;SDS011;44936;52.086;5.150;2023-04-19T04:01:18;8.52;;;3.17;;
36725;SDS011;44936;52.086;5.150;2023-04-19T04:03:44;8.77;;;3.00;;
36725;SDS011;44936;52.086;5.150;2023-04-19T04:06:09;6.50;;;2.97;;
36725;SDS011;44936;52.086;5.150;2023-04-19T04:08:34;9.85;;;2.97;;
36725;SDS011;44936;52.086;5.150;2023-04-19T04:11:00;6.38;;;2.83;;
36725;SDS011;44936;52.086;5.150;2023-04-19T04:13:25;8.23;;;3.00;;
36725;SDS011;44936;52.086;5.150;2023-04-19T04:15:50;7.35;;;3.47;;
36725;SDS011;44936;52.086;5.150;2023-04-19T04:18:16;7.05;;;3.13;;
36725;SDS011;44936;52.086;5.150;2023-04-19T04:20:42;6.63;;;2.60;;
36725;SDS011;44936;52.086;5.150;2023-04-19T04:23:08;8.13;;;2.90;;
36725;SDS011;44936;52.086;5.150;2023-04-19T04:25:34;6.15;;;2.60;;
36725;SDS011;44936;52.086;5.150;2023-04-19T04:28:01;7.45;;;2.53;;
36725;SDS011;44936;52.086;5.150;2023-04-19T04:30:30;10.00;;;2.75;;
36725;SDS011;44936;52.086;5.150;2023-04-19T04:32:55;8.75;;;2.80;;
36725;SDS011;44936;52.086;5.150;2023-04-19T04:35:24;6.25;;;2.65;;
36725;SDS011;44936;52.086;5.150;2023-04-19T04:37:50;7.43;;;2.88;;
36725;SDS011;44936;52.086;5.150;2023-04-19T04:40:17;5.82;;;2.47;;
36725;SDS011;44936;52.086;5.150;2023-04-19T04:42:43;8.02;;;2.80;;
36725;SDS011;44936;52.086;5.150;2023-04-19T04:45:09;6.75;;;2.53;;
36725;SDS011;44936;52.086;5.150;2023-04-19T04:47:35;4.97;;;2.28;;
36725;SDS011;44936;52.086;5.150;2023-04-19T04:50:01;8.35;;;2.50;;
36725;SDS011;44936;52.086;5.150;2023-04-19T04:52:27;8.15;;;2.83;;
36725;SDS011;44936;52.086;5.150;2023-04-19T04:54:53;7.15;;;2.88;;
36725;SDS011;44936;52.086;5.150;2023-04-19T04:57:18;6.55;;;2.67;;
36725;SDS011;44936;52.086;5.150;2023-04-19T04:59:44;6.97;;;2.90;;
36725;SDS011;44936;52.086;5.150;2023-04-19T05:02:11;7.47;;;2.80;;
36725;SDS011;44936;52.086;5.150;2023-04-19T05:04:37;5.60;;;2.20;;
36725;SDS011;44936;52.086;5.150;2023-04-19T05:07:02;6.47;;;2.83;;
36725;SDS011;44936;52.086;5.150;2023-04-19T05:09:28;6.78;;;2.50;;
36725;SDS011;44936;52.086;5.150;2023-04-19T05:11:53;5.63;;;2.50;;
36725;SDS011;44936;52.086;5.150;2023-04-19T05:14:18;7.10;;;2.50;;
36725;SDS011;44936;52.086;5.150;2023-04-19T05:16:44;7.75;;;2.75;;
36725;SDS011;44936;52.086;5.150;2023-04-19T05:19:10;6.50;;;2.83;;
36725;SDS011;44936;52.086;5.150;2023-04-19T05:21:35;7.70;;;2.55;;
36725;SDS011;44936;52.086;5.150;2023-04-19T05:24:00;9.00;;;3.25;;
36725;SDS011;44936;52.086;5.150;2023-04-19T05:26:26;6.10;;;2.30;;
36725;SDS011;44936;52.086;5.150;2023-04-19T05:28:51;6.35;;;2.63;;
36725;SDS011;44936;52.086;5.150;2023-04-19T05:31:16;6.05;;;2.55;;
36725;SDS011;44936;52.086;5.150;2023-04-19T05:33:42;7.95;;;2.72;;
36725;SDS011;44936;52.086;5.150;2023-04-19T05:36:08;6.13;;;2.28;;
36725;SDS011;44936;52.086;5.150;2023-04-19T05:38:33;5.88;;;2.47;;
36725;SDS011;44936;52.086;5.150;2023-04-19T05:40:59;8.48;;;2.42;;
36725;SDS011;44936;52.086;5.150;2023-04-19T05:43:24;9.20;;;2.95;;
36725;SDS011;44936;52.086;5.150;2023-04-19T05:45:49;7.45;;;2.85;;
36725;SDS011;44936;52.086;5.150;2023-04-19T05:48:15;5.95;;;3.55;;
36725;SDS011;44936;52.086;5.150;2023-04-19T05:50:40;9.32;;;2.80;;
36725;SDS011;44936;52.086;5.150;2023-04-19T05:53:05;6.10;;;2.50;;
36725;SDS011;44936;52.086;5.150;2023-04-19T05:55:30;10.50;;;2.75;;
36725;SDS011;44936;52.086;5.150;2023-04-19T05:57:57;4.82;;;2.05;;
36725;SDS011;44936;52.086;5.150;2023-04-19T06:00:23;6.90;;;2.50;;
36725;SDS011;44936;52.086;5.150;2023-04-19T06:02:48;7.22;;;2.75;;
36725;SDS011;44936;52.086;5.150;2023-04-19T06:05:13;6.32;;;2.53;;
36725;SDS011;44936;52.086;5.150;2023-04-19T06:07:39;5.25;;;2.22;;
36725;SDS011;44936;52.086;5.150;2023-04-19T06:10:04;5.82;;;2.55;;
36725;SDS011;44936;52.086;5.150;2023-04-19T06:12:30;6.70;;;2.53;;
36725;SDS011;44936;52.086;5.150;2023-04-19T06:14:56;5.93;;;2.63;;
36725;SDS011;44936;52.086;5.150;2023-04-19T06:17:21;5.88;;;2.42;;
36725;SDS011;44936;52.086;5.150;2023-04-19T06:19:49;7.03;;;2.65;;
36725;SDS011;44936;52.086;5.150;2023-04-19T06:22:15;7.18;;;2.70;;
36725;SDS011;44936;52.086;5.150;2023-04-19T06:24:40;8.38;;;2.78;;
36725;SDS011;44936;52.086;5.150;2023-04-19T06:27:06;8.00;;;2.70;;
36725;SDS011;44936;52.086;5.150;2023-04-19T06:29:31;6.13;;;2.67;;
36725;SDS011;44936;52.086;5.150;2023-04-19T06:31:56;4.32;;;2.40;;
36725;SDS011;44936;52.086;5.150;2023-04-19T06:34:22;9.80;;;2.72;;
36725;SDS011;44936;52.086;5.150;2023-04-19T06:36:47;5.68;;;2.67;;
36725;SDS011;44936;52.086;5.150;2023-04-19T06:39:13;5.60;;;3.03;;
36725;SDS011;44936;52.086;5.150;2023-04-19T06:41:39;8.73;;;2.63;;
36725;SDS011;44936;52.086;5.150;2023-04-19T06:44:04;6.75;;;2.67;;
36725;SDS011;44936;52.086;5.150;2023-04-19T06:46:30;5.45;;;2.63;;
36725;SDS011;44936;52.086;5.150;2023-04-19T06:48:55;4.50;;;2.20;;
36725;SDS011;44936;52.086;5.150;2023-04-19T06:51:20;6.78;;;2.53;;
36725;SDS011;44936;52.086;5.150;2023-04-19T06:53:46;6.07;;;2.63;;
36725;SDS011;44936;52.086;5.150;2023-04-19T06:56:11;5.60;;;2.33;;
36725;SDS011;44936;52.086;5.150;2023-04-19T06:58:37;7.45;;;2.25;;
36725;SDS011;44936;52.086;5.150;2023-04-19T07:01:03;5.13;;;2.40;;
36725;SDS011;44936;52.086;5.150;2023-04-19T07:03:30;5.40;;;2.40;;
36725;SDS011;44936;52.086;5.150;2023-04-19T07:05:56;7.70;;;2.60;;
36725;SDS011;44936;52.086;5.150;2023-04-19T07:08:22;4.20;;;2.00;;
36725;SDS011;44936;52.086;5.150;2023-04-19T07:10:47;6.60;;;3.20;;
36725;SDS011;44936;52.086;5.150;2023-04-19T07:13:13;4.35;;;1.95;;
36725;SDS011;44936;52.086;5.150;2023-04-19T07:15:38;3.90;;;1.85;;
36725;SDS011;44936;52.086;5.150;2023-04-19T07:18:04;6.82;;;1.88;;
36725;SDS011;44936;52.086;5.150;2023-04-19T07:20:29;4.70;;;2.22;;
36725;SDS011;44936;52.086;5.150;2023-04-19T07:22:56;3.63;;;2.00;;
36725;SDS011;44936;52.086;5.150;2023-04-19T07:25:22;3.80;;;1.80;;
36725;SDS011;44936;52.086;5.150;2023-04-19T07:27:48;4.78;;;2.17;;
36725;SDS011;44936;52.086;5.150;2023-04-19T07:30:13;3.33;;;1.65;;
36725;SDS011;44936;52.086;5.150;2023-04-19T07:32:38;4.63;;;1.80;;
36725;SDS011;44936;52.086;5.150;2023-04-19T07:35:04;3.90;;;1.95;;
36725;SDS011;44936;52.086;5.150;2023-04-19T07:37:29;4.00;;;1.75;;
36725;SDS011;44936;52.086;5.150;2023-04-19T07:39:55;4.13;;;1.90;;
36725;SDS011;44936;52.086;5.150;2023-04-19T07:42:20;4.20;;;2.00;;
36725;SDS011;44936;52.086;5.150;2023-04-19T07:44:45;3.53;;;1.90;;
36725;SDS011;44936;52.086;5.150;2023-04-19T07:47:11;4.03;;;1.73;;
36725;SDS011;44936;52.086;5.150;2023-04-19T07:49:36;5.40;;;1.80;;
36725;SDS011;44936;52.086;5.150;2023-04-19T07:52:02;5.05;;;1.70;;
36725;SDS011;44936;52.086;5.150;2023-04-19T07:54:31;5.65;;;2.08;;
36725;SDS011;44936;52.086;5.150;2023-04-19T07:56:57;3.88;;;1.83;;
36725;SDS011;44936;52.086;5.150;2023-04-19T07:59:23;3.67;;;2.00;;
36725;SDS011;44936;52.086;5.150;2023-04-19T08:01:48;2.05;;;1.42;;
36725;SDS011;44936;52.086;5.150;2023-04-19T08:04:14;7.32;;;2.08;;
36725;SDS011;44936;52.086;5.150;2023-04-19T08:06:41;4.85;;;1.80;;
36725;SDS011;44936;52.086;5.150;2023-04-19T08:09:06;2.22;;;1.38;;
36725;SDS011;44936;52.086;5.150;2023-04-19T08:11:32;5.20;;;1.70;;
36725;SDS011;44936;52.086;5.150;2023-04-19T08:13:57;4.70;;;1.88;;
36725;SDS011;44936;52.086;5.150;2023-04-19T08:16:23;3.58;;;2.13;;
36725;SDS011;44936;52.086;5.150;2023-04-19T08:18:48;2.45;;;1.45;;
36725;SDS011;44936;52.086;5.150;2023-04-19T08:21:16;4.05;;;1.98;;
36725;SDS011;44936;52.086;5.150;2023-04-19T08:23:41;3.40;;;1.45;;
36725;SDS011;44936;52.086;5.150;2023-04-19T08:26:07;3.25;;;1.60;;
36725;SDS011;44936;52.086;5.150;2023-04-19T08:28:32;2.63;;;1.40;;
36725;SDS011;44936;52.086;5.150;2023-04-19T08:30:57;4.88;;;2.60;;
36725;SDS011;44936;52.086;5.150;2023-04-19T08:33:23;5.97;;;1.58;;
36725;SDS011;44936;52.086;5.150;2023-04-19T08:35:48;3.55;;;1.55;;
36725;SDS011;44936;52.086;5.150;2023-04-19T08:38:14;7.40;;;2.15;;
36725;SDS011;44936;52.086;5.150;2023-04-19T08:40:40;2.50;;;1.40;;
36725;SDS011;44936;52.086;5.150;2023-04-19T08:43:11;5.85;;;1.60;;
36725;SDS011;44936;52.086;5.150;2023-04-19T08:45:36;5.22;;;2.05;;
36725;SDS011;44936;52.086;5.150;2023-04-19T08:48:03;3.00;;;1.40;;
36725;SDS011;44936;52.086;5.150;2023-04-19T08:50:30;5.72;;;1.60;;
36725;SDS011;44936;52.086;5.150;2023-04-19T08:52:57;3.30;;;1.63;;
36725;SDS011;44936;52.086;5.150;2023-04-19T08:55:24;3.38;;;1.45;;
36725;SDS011;44936;52.086;5.150;2023-04-19T08:57:49;1.85;;;1.42;;
36725;SDS011;44936;52.086;5.150;2023-04-19T09:00:15;3.00;;;1.40;;
36725;SDS011;44936;52.086;5.150;2023-04-19T09:02:48;2.65;;;1.15;;
36725;SDS011;44936;52.086;5.150;2023-04-19T09:05:15;3.53;;;1.52;;
36725;SDS011;44936;52.086;5.150;2023-04-19T09:07:42;2.90;;;1.40;;
36725;SDS011;44936;52.086;5.150;2023-04-19T09:10:12;3.28;;;1.42;;
36725;SDS011;44936;52.086;5.150;2023-04-19T09:12:39;2.67;;;1.20;;
36725;SDS011;44936;52.086;5.150;2023-04-19T09:15:06;2.63;;;1.20;;
36725;SDS011;44936;52.086;5.150;2023-04-19T09:17:33;3.17;;;1.50;;
36725;SDS011;44936;52.086;5.150;2023-04-19T09:20:00;3.03;;;1.45;;
36725;SDS011;44936;52.086;5.150;2023-04-19T09:22:26;2.85;;;1.30;;
36725;SDS011;44936;52.086;5.150;2023-04-19T09:24:51;4.00;;;1.00;;
36725;SDS011;44936;52.086;5.150;2023-04-19T09:27:30;2.53;;;1.05;;
36725;SDS011;44936;52.086;5.150;2023-04-19T09:29:58;4.13;;;1.30;;
36725;SDS011;44936;52.086;5.150;2023-04-19T09:32:25;4.88;;;1.45;;
36725;SDS011;44936;52.086;5.150;2023-04-19T09:34:52;2.05;;;0.80;;
36725;SDS011;44936;52.086;5.150;2023-04-19T09:37:19;1.88;;;0.95;;
36725;SDS011;44936;52.086;5.150;2023-04-19T09:39:45;3.00;;;0.88;;
36725;SDS011;44936;52.086;5.150;2023-04-19T09:42:10;1.77;;;0.90;;
36725;SDS011;44936;52.086;5.150;2023-04-19T09:44:36;1.50;;;0.82;;
36725;SDS011;44936;52.086;5.150;2023-04-19T09:47:01;1.50;;;0.90;;
36725;SDS011;44936;52.086;5.150;2023-04-19T09:49:27;2.05;;;0.70;;
36725;SDS011;44936;52.086;5.150;2023-04-19T09:51:53;1.15;;;1.05;;
36725;SDS011;44936;52.086;5.150;2023-04-19T09:54:21;1.60;;;1.05;;
36725;SDS011;44936;52.086;5.150;2023-04-19T09:56:48;2.97;;;1.13;;
36725;SDS011;44936;52.086;5.150;2023-04-19T09:59:14;0.98;;;0.75;;
36725;SDS011;44936;52.086;5.150;2023-04-19T10:01:58;1.20;;;0.80;;
36725;SDS011;44936;52.086;5.150;2023-04-19T10:04:26;1.60;;;0.93;;
36725;SDS011;44936;52.086;5.150;2023-04-19T10:06:53;0.77;;;0.60;;
36725;SDS011;44936;52.086;5.150;2023-04-19T10:09:22;1.00;;;0.82;;
36725;SDS011;44936;52.086;5.150;2023-04-19T10:11:49;0.95;;;0.70;;
36725;SDS011;44936;52.086;5.150;2023-04-19T10:14:15;2.38;;;1.17;;
36725;SDS011;44936;52.086;5.150;2023-04-19T10:16:45;1.45;;;0.80;;
36725;SDS011;44936;52.086;5.150;2023-04-19T10:19:11;1.58;;;0.75;;
36725;SDS011;44936;52.086;5.150;2023-04-19T10:21:40;1.75;;;0.80;;
36725;SDS011;44936;52.086;5.150;2023-04-19T10:24:11;2.85;;;1.23;;
36725;SDS011;44936;52.086;5.150;2023-04-19T10:29:53;3.10;;;0.88;;
36725;SDS011;44936;52.086;5.150;2023-04-19T10:32:19;1.02;;;0.60;;
36725;SDS011;44936;52.086;5.150;2023-04-19T10:34:44;2.30;;;0.93;;
36725;SDS011;44936;52.086;5.150;2023-04-19T10:37:10;1.75;;;0.98;;
36725;SDS011;44936;52.086;5.150;2023-04-19T10:39:38;3.28;;;0.63;;
36725;SDS011;44936;52.086;5.150;2023-04-19T10:42:07;1.13;;;0.63;;
36725;SDS011;44936;52.086;5.150;2023-04-19T10:44:32;1.70;;;0.82;;
36725;SDS011;44936;52.086;5.150;2023-04-19T10:46:58;1.92;;;0.90;;
36725;SDS011;44936;52.086;5.150;2023-04-19T10:49:24;1.63;;;1.00;;
36725;SDS011;44936;52.086;5.150;2023-04-19T10:51:51;1.42;;;0.90;;
36725;SDS011;44936;52.086;5.150;2023-04-19T10:54:34;1.48;;;0.82;;
36725;SDS011;44936;52.086;5.150;2023-04-19T10:57:03;1.35;;;0.80;;
36725;SDS011;44936;52.086;5.150;2023-04-19T10:59:30;3.25;;;0.90;;
36725;SDS011;44936;52.086;5.150;2023-04-19T11:02:01;2.33;;;0.75;;
36725;SDS011;44936;52.086;5.150;2023-04-19T11:06:57;0.77;;;0.60;;
36725;SDS011;44936;52.086;5.150;2023-04-19T11:09:30;1.13;;;1.00;;
36725;SDS011;44936;52.086;5.150;2023-04-19T11:12:09;1.45;;;0.70;;
36725;SDS011;44936;52.086;5.150;2023-04-19T11:14:35;1.55;;;0.82;;
36725;SDS011;44936;52.086;5.150;2023-04-19T11:17:12;2.22;;;0.90;;
36725;SDS011;44936;52.086;5.150;2023-04-19T11:19:52;2.25;;;0.93;;
36725;SDS011;44936;52.086;5.150;2023-04-19T11:22:18;1.20;;;0.68;;
36725;SDS011;44936;52.086;5.150;2023-04-19T11:24:48;1.20;;;0.70;;
36725;SDS011;44936;52.086;5.150;2023-04-19T11:27:14;2.50;;;0.80;;
36725;SDS011;44936;52.086;5.150;2023-04-19T11:29:39;1.50;;;0.80;;
36725;SDS011;44936;52.086;5.150;2023-04-19T11:32:05;1.30;;;0.68;;
36725;SDS011;44936;52.086;5.150;2023-04-19T11:34:37;1.30;;;0.77;;
36725;SDS011;44936;52.086;5.150;2023-04-19T11:37:03;2.67;;;0.63;;
36725;SDS011;44936;52.086;5.150;2023-04-19T11:39:28;3.50;;;0.90;;
36725;SDS011;44936;52.086;5.150;2023-04-19T11:41:54;1.45;;;1.00;;
36725;SDS011;44936;52.086;5.150;2023-04-19T11:44:20;1.63;;;0.65;;
36725;SDS011;44936;52.086;5.150;2023-04-19T11:47:02;1.45;;;0.80;;
36725;SDS011;44936;52.086;5.150;2023-04-19T11:49:32;3.15;;;1.23;;
36725;SDS011;44936;52.086;5.150;2023-04-19T11:51:59;1.48;;;0.88;;
36725;SDS011;44936;52.086;5.150;2023-04-19T11:54:25;2.63;;;1.17;;
36725;SDS011;44936;52.086;5.150;2023-04-19T11:59:33;3.50;;;0.80;;
36725;SDS011;44936;52.086;5.150;2023-04-19T12:02:07;1.60;;;0.90;;
36725;SDS011;44936;52.086;5.150;2023-04-19T12:04:33;1.20;;;0.98;;
36725;SDS011;44936;52.086;5.150;2023-04-19T12:07:00;1.30;;;0.63;;
36725;SDS011;44936;52.086;5.150;2023-04-19T12:09:26;1.42;;;0.90;;
36725;SDS011;44936;52.086;5.150;2023-04-19T12:11:52;2.28;;;1.23;;
36725;SDS011;44936;52.086;5.150;2023-04-19T12:14:18;1.17;;;1.05;;
36725;SDS011;44936;52.086;5.150;2023-04-19T12:19:41;1.48;;;1.00;;
36725;SDS011;44936;52.086;5.150;2023-04-19T12:24:37;2.42;;;1.13;;
36725;SDS011;44936;52.086;5.150;2023-04-19T12:27:04;2.15;;;1.00;;
36725;SDS011;44936;52.086;5.150;2023-04-19T12:29:37;2.28;;;1.15;;
36725;SDS011;44936;52.086;5.150;2023-04-19T12:32:02;2.97;;;1.00;;
36725;SDS011;44936;52.086;5.150;2023-04-19T12:34:28;5.25;;;1.20;;
36725;SDS011;44936;52.086;5.150;2023-04-19T12:36:54;1.52;;;1.00;;
36725;SDS011;44936;52.086;5.150;2023-04-19T12:39:20;3.90;;;1.00;;
36725;SDS011;44936;52.086;5.150;2023-04-19T12:41:45;1.65;;;1.00;;
36725;SDS011;44936;52.086;5.150;2023-04-19T12:44:13;2.65;;;1.65;;
36725;SDS011;44936;52.086;5.150;2023-04-19T12:46:38;3.30;;;1.00;;
36725;SDS011;44936;52.086;5.150;2023-04-19T12:49:04;1.25;;;0.80;;
36725;SDS011;44936;52.086;5.150;2023-04-19T12:51:29;2.58;;;0.98;;
36725;SDS011;44936;52.086;5.150;2023-04-19T12:53:56;3.80;;;1.52;;
36725;SDS011;44936;52.086;5.150;2023-04-19T12:56:22;2.47;;;1.10;;
36725;SDS011;44936;52.086;5.150;2023-04-19T12:58:47;2.72;;;1.20;;
36725;SDS011;44936;52.086;5.150;2023-04-19T13:01:12;1.92;;;1.20;;
36725;SDS011;44936;52.086;5.150;2023-04-19T13:03:38;3.42;;;1.10;;
36725;SDS011;44936;52.086;5.150;2023-04-19T13:06:03;4.30;;;1.20;;
36725;SDS011;44936;52.086;5.150;2023-04-19T13:08:29;1.58;;;0.95;;
36725;SDS011;44936;52.086;5.150;2023-04-19T13:10:55;2.65;;;1.40;;
36725;SDS011;44936;52.086;5.150;2023-04-19T13:13:20;3.03;;;1.20;;
36725;SDS011;44936;52.086;5.150;2023-04-19T13:15:46;1.85;;;1.17;;
36725;SDS011;44936;52.086;5.150;2023-04-19T13:18:11;3.53;;;1.17;;
36725;SDS011;44936;52.086;5.150;2023-04-19T13:20:37;1.13;;;1.02;;
36725;SDS011;44936;52.086;5.150;2023-04-19T13:23:02;2.72;;;1.45;;
36725;SDS011;44936;52.086;5.150;2023-04-19T13:25:28;1.05;;;0.90;;
36725;SDS011;44936;52.086;5.150;2023-04-19T13:27:53;1.77;;;1.20;;
36725;SDS011;44936;52.086;5.150;2023-04-19T13:30:18;2.00;;;1.20;;
36725;SDS011;44936;52.086;5.150;2023-04-19T13:32:44;3.88;;;1.17;;
36725;SDS011;44936;52.086;5.150;2023-04-19T13:35:09;2.85;;;1.30;;
36725;SDS011;44936;52.086;5.150;2023-04-19T13:37:34;2.53;;;1.27;;
36725;SDS011;44936;52.086;5.150;2023-04-19T13:40:00;1.30;;;1.00;;
36725;SDS011;44936;52.086;5.150;2023-04-19T13:42:26;2.22;;;1.20;;
36725;SDS011;44936;52.086;5.150;2023-04-19T13:44:52;2.83;;;1.05;;
36725;SDS011;44936;52.086;5.150;2023-04-19T13:47:18;3.35;;;1.80;;
36725;SDS011;44936;52.086;5.150;2023-04-19T13:49:43;2.72;;;0.88;;
36725;SDS011;44936;52.086;5.150;2023-04-19T13:52:09;1.55;;;1.38;;
36725;SDS011;44936;52.086;5.150;2023-04-19T13:54:35;2.22;;;1.40;;
36725;SDS011;44936;52.086;5.150;2023-04-19T13:57:00;2.10;;;1.13;;
36725;SDS011;44936;52.086;5.150;2023-04-19T13:59:26;2.33;;;1.55;;
36725;SDS011;44936;52.086;5.150;2023-04-19T14:01:53;2.00;;;1.10;;
36725;SDS011;44936;52.086;5.150;2023-04-19T14:04:19;1.85;;;1.23;;
36725;SDS011;44936;52.086;5.150;2023-04-19T14:06:45;3.00;;;1.10;;
36725;SDS011;44936;52.086;5.150;2023-04-19T14:09:10;2.90;;;1.40;;
36725;SDS011;44936;52.086;5.150;2023-04-19T14:11:36;2.00;;;1.02;;
36725;SDS011;44936;52.086;5.150;2023-04-19T14:14:02;1.80;;;1.08;;
36725;SDS011;44936;52.086;5.150;2023-04-19T14:16:27;1.98;;;0.98;;
36725;SDS011;44936;52.086;5.150;2023-04-19T14:18:53;2.13;;;1.23;;
36725;SDS011;44936;52.086;5.150;2023-04-19T14:21:18;2.67;;;1.20;;
36725;SDS011;44936;52.086;5.150;2023-04-19T14:23:43;2.60;;;1.15;;
36725;SDS011;44936;52.086;5.150;2023-04-19T14:26:09;2.80;;;1.20;;
36725;SDS011;44936;52.086;5.150;2023-04-19T14:28:34;2.05;;;1.10;;
36725;SDS011;44936;52.086;5.150;2023-04-19T14:31:00;1.95;;;1.23;;
36725;SDS011;44936;52.086;5.150;2023-04-19T14:33:25;4.03;;;1.05;;
36725;SDS011;44936;52.086;5.150;2023-04-19T14:35:52;2.33;;;1.50;;
36725;SDS011;44936;52.086;5.150;2023-04-19T14:38:17;2.00;;;1.15;;
36725;SDS011;44936;52.086;5.150;2023-04-19T14:40:43;2.17;;;1.10;;
36725;SDS011;44936;52.086;5.150;2023-04-19T14:43:10;2.65;;;1.10;;
36725;SDS011;44936;52.086;5.150;2023-04-19T14:45:38;3.30;;;1.00;;
36725;SDS011;44936;52.086;5.150;2023-04-19T14:48:03;1.70;;;1.30;;
36725;SDS011;44936;52.086;5.150;2023-04-19T14:50:29;2.40;;;1.10;;
36725;SDS011;44936;52.086;5.150;2023-04-19T14:52:54;1.73;;;1.20;;
36725;SDS011;44936;52.086;5.150;2023-04-19T14:55:20;1.40;;;0.90;;